Data for 12/17/2016

Time Sea-Level Adjusted Pressure Absolute Pressure Temperature Relative Humidity Dew Point   
(mb) (inHg) (mb) (inHg) (C) (F) (%) (C) (F)
00:05 1015 29.97 845 24.95 -22.9 -9.3 76 -26.1 -14.9
00:10 1015 29.97 845 24.95 -22.9 -9.1 77 -25.8 -14.5
00:15 1015 29.97 845 24.95 -22.8 -9.1 77 -25.8 -14.4
00:20 1015 29.97 845 24.95 -22.7 -8.9 77 -25.7 -14.3
00:25 1015 29.97 845 24.95 -22.7 -8.9 76 -25.8 -14.5
00:30 1015 29.97 845 24.95 -22.7 -8.9 75 -25.9 -14.7
00:35 1016 30 845 24.95 -22.9 -9.1 76 -26 -14.9
00:40 1016 30 845 24.95 -22.8 -9 76 -25.9 -14.6
00:45 1016 30 845 24.95 -22.7 -8.9 76 -25.9 -14.6
00:50 1016 30 845 24.95 -22.7 -8.9 76 -25.9 -14.6
00:55 1016 30 845 24.95 -22.6 -8.6 75 -25.9 -14.7
01:00 1016 30 845 24.95 -22.8 -9 74 -26.2 -15.1
01:05 1016 30 845 24.95 -22.8 -9 75 -26.1 -14.9
01:10 1016 30 845 24.95 -22.8 -9.1 75 -26.2 -15.1
01:15 1016 30 845 24.95 -22.8 -9.1 75 -26.1 -14.9
01:20 1016 30 845 24.95 -22.8 -9.1 75 -26.1 -15
01:25 1016 30 845 24.95 -22.9 -9.3 75 -26.2 -15.1
01:30 1016 30 845 24.95 -23 -9.4 75 -26.2 -15.2
01:35 1016 30 845 24.95 -23.3 -9.9 77 -26.2 -15.2
01:40 1016 30 845 24.95 -23.2 -9.8 76 -26.3 -15.4
01:45 1016 30 845 24.95 -23.1 -9.6 76 -26.2 -15.1
01:50 1016 30 845 24.95 -23 -9.5 76 -26.2 -15.1
01:55 1016 30 845 24.95 -23.2 -9.8 75 -26.5 -15.7
02:00 1016 30 845 24.95 -23.4 -10.1 76 -26.6 -15.8
02:05 1015 29.97 845 24.95 -23.4 -10.1 76 -26.6 -15.8
02:10 1016 30 845 24.95 -23.4 -10.2 76 -26.6 -15.8
02:15 1016 30 845 24.95 -23.4 -10.1 75 -26.6 -15.9
02:20 1016 30 845 24.95 -23.5 -10.3 74 -27 -16.5
02:25 1016 30 845 24.95 -24 -11.2 74 -27.4 -17.3
02:30 1016 30 845 24.95 -24.2 -11.5 74 -27.5 -17.5
02:35 1016 30 845 24.95 -24.1 -11.3 75 -27.4 -17.3
02:40 1016 30 845 24.95 -24.2 -11.6 75 -27.5 -17.5
02:45 1016 30 845 24.95 -24.4 -11.8 75 -27.6 -17.6
02:50 1016 30 845 24.95 -24.5 -12.1 75 -27.7 -17.9
02:55 1016 30 845 24.95 -24.7 -12.4 76 -27.8 -18
03:00 1016 30 845 24.95 -24.6 -12.4 72 -28.3 -18.9
03:05 1016 30 845 24.95 -25 -12.9 75 -28.3 -18.9
03:10 1016 30 845 24.95 -24.9 -12.8 74 -28.3 -19
03:15 1016 30 845 24.95 -25 -12.9 71 -28.7 -19.7
03:20 1016 30 845 24.95 -25.5 -13.9 72 -29.2 -20.6
03:25 1016 30 845 24.95 -25.5 -13.8 71 -29.3 -20.7
03:30 1016 30 845 24.95 -25.2 -13.3 73 -28.7 -19.7
03:35 1016 30 845 24.95 -25.1 -13.2 70 -29.1 -20.3
03:40 1016 30 845 24.95 -25.6 -14.1 71 -29.4 -21
03:45 1016 30 845 24.95 -25.7 -14.3 77 -28.7 -19.6
03:50 1016 30 845 24.95 -25.7 -14.3 78 -28.5 -19.3
03:55 1016 30 845 24.95 -25.6 -14.1 78 -28.5 -19.2
04:00 1016 30 845 24.95 -25.7 -14.2 74 -29 -20.2
04:05 1016 30 845 24.95 -25.8 -14.5 74 -29.1 -20.4
04:10 1016 30 845 24.95 -25.7 -14.2 73 -29.1 -20.4
04:15 1016 30 845 24.95 -25.7 -14.3 75 -29 -20.1
04:20 1016 30 845 24.95 -25.6 -14.1 75 -28.8 -19.8
04:25 1016 30 845 24.95 -25.5 -13.9 74 -28.9 -20.1
04:30 1016 30 845 24.95 -25.6 -14.2 73 -29.1 -20.4
04:35 1016 30 845 24.95 -25.6 -14.2 72 -29.2 -20.6
04:40 1016 30 845 24.95 -25.5 -14 74 -28.9 -20
04:45 1016 30 845 24.95 -25.3 -13.6 73 -28.9 -20
04:50 1016 30 845 24.95 -25.4 -13.7 69 -29.5 -21.2
04:55 1016 30 845 24.95 -25.8 -14.4 69 -29.9 -21.9
05:00 1016 30 845 24.95 -26.1 -14.9 69 -30.2 -22.4
05:05 1016 30 845 24.95 -26.6 -15.8 69 -30.7 -23.2
05:10 1016 30 845 24.95 -26.9 -16.3 69 -30.9 -23.7
05:15 1016 30 845 24.95 -27 -16.6 70 -30.9 -23.6
05:20 1016 30 845 24.95 -26.7 -16.1 69 -30.8 -23.4
05:25 1016 30 845 24.95 -26.8 -16.3 72 -30.5 -22.9
05:30 1016 30 845 24.95 -26.5 -15.6 74 -29.8 -21.6
05:35 1016 30 845 24.95 -26 -14.8 73 -29.5 -21.1
05:40 1016 30 845 24.95 -26.1 -15 74 -29.5 -21
05:45 1016 30 845 24.95 -26.3 -15.3 73 -29.8 -21.7
05:50 1016 30 845 24.95 -26.5 -15.6 75 -29.7 -21.5
05:55 1016 30 845 24.95 -26.5 -15.6 75 -29.7 -21.5
06:00 1016 30 845 24.95 -26.4 -15.4 74 -29.7 -21.5
06:05 1016 30 845 24.95 -26.4 -15.5 74 -29.8 -21.6
06:10 1016 30 845 24.95 -26.3 -15.4 74 -29.6 -21.3
06:15 1016 30 845 24.95 -26.3 -15.4 73 -29.8 -21.6
06:20 1016 30 845 24.95 -26.2 -15.1 70 -30.1 -22.3
06:25 1016 30 845 24.95 -26.2 -15.1 71 -30 -22
06:30 1016 30 845 24.95 -26.1 -15 71 -29.9 -21.9
06:35 1016 30 845 24.95 -26.2 -15.2 72 -29.8 -21.7
06:40 1016 30 845 24.95 -26.3 -15.4 74 -29.7 -21.5
06:45 1016 30 845 24.95 -26.2 -15.1 73 -29.6 -21.3
06:50 1016 30 845 24.95 -26.2 -15.2 70 -30.2 -22.3
06:55 1016 30 845 24.95 -26.4 -15.6 70 -30.4 -22.8
07:00 1016 30 845 24.95 -26.6 -15.9 71 -30.4 -22.8
07:05 1016 30 846 24.98 -26.9 -16.3 73 -30.3 -22.5
07:10 1016 30 846 24.98 -26.8 -16.2 75 -30 -22
07:15 1016 30 846 24.98 -26.6 -15.8 73 -30.1 -22.1
07:20 1016 30 846 24.98 -26.6 -15.8 72 -30.2 -22.4
07:25 1016 30 846 24.98 -26.7 -16 73 -30.2 -22.4
07:30 1016 30 846 24.98 -26.6 -15.8 72 -30.2 -22.4
07:35 1016 30 846 24.98 -26.5 -15.7 71 -30.2 -22.4
07:40 1016 30 846 24.98 -26.4 -15.6 71 -30.2 -22.3
07:45 1017 30.03 846 24.98 -26.4 -15.6 72 -30 -22.1
07:50 1017 30.03 846 24.98 -26.4 -15.6 72 -30.1 -22.2
07:55 1017 30.03 846 24.98 -26.4 -15.4 72 -30 -22.1
08:00 1017 30.03 846 24.98 -26.2 -15.2 72 -29.9 -21.8
08:05 1017 30.03 846 24.98 -26.1 -15 72 -29.7 -21.5
08:10 1017 30.03 846 24.98 -26.2 -15.1 74 -29.6 -21.2
08:15 1017 30.03 846 24.98 -26.3 -15.3 75 -29.5 -21.1
08:20 1017 30.03 846 24.98 -26.3 -15.4 74 -29.7 -21.4
08:25 1017 30.03 846 24.98 -26.4 -15.5 72 -30 -21.9
08:30 1017 30.03 846 24.98 -26.5 -15.8 73 -30.1 -22.1
08:35 1017 30.03 846 24.98 -26.4 -15.5 73 -29.9 -21.9
08:40 1017 30.03 846 24.98 -26.2 -15.2 72 -29.9 -21.8
08:45 1017 30.03 846 24.98 -26.1 -15 72 -29.8 -21.6
08:50 1017 30.03 846 24.98 -26.2 -15.1 72 -29.8 -21.7
08:55 1017 30.03 846 24.98 -26.1 -14.9 72 -29.7 -21.4
09:00 1017 30.03 846 24.98 -26.3 -15.3 71 -30.2 -22.3
09:05 1017 30.03 846 24.98 -26.9 -16.5 71 -30.8 -23.4
09:10 1017 30.03 846 24.98 -27.1 -16.8 72 -30.7 -23.2
09:15 1017 30.03 846 24.98 -26.6 -15.9 73 -30 -22.1
09:20 1017 30.03 846 24.98 -26.3 -15.4 72 -30 -22
09:25 1017 30.03 846 24.98 -26.1 -15 74 -29.5 -21.1
09:30 1017 30.03 846 24.98 -25.9 -14.6 75 -29.2 -20.5
09:35 1017 30.03 846 24.98 -25.5 -13.8 75 -28.7 -19.7
09:40 1017 30.03 846 24.98 -24.8 -12.6 72 -28.4 -19.2
09:45 1017 30.03 846 24.98 -24.5 -12 70 -28.5 -19.3
09:50 1017 30.03 846 24.98 -24.5 -12 71 -28.3 -19
09:55 1017 30.03 846 24.98 -24.1 -11.4 69 -28.3 -19
10:00 1017 30.03 846 24.98 -24.1 -11.4 68 -28.5 -19.3
10:05 1017 30.03 846 24.98 -24.1 -11.3 69 -28.2 -18.7
10:10 1017 30.03 847 25.01 -23.8 -10.8 68 -28.2 -18.7
10:15 1017 30.03 847 25.01 -23.9 -11.1 67 -28.4 -19.1
10:20 1017 30.03 847 25.01 -24.1 -11.3 68 -28.4 -19.1
10:25 1017 30.03 847 25.01 -23.9 -11.1 67 -28.4 -19.1
10:30 1017 30.03 847 25.01 -23.7 -10.6 66 -28.4 -19.2
10:35 1017 30.03 846 24.98 -23.6 -10.6 68 -28.1 -18.5
10:40 1017 30.03 846 24.98 -23.5 -10.3 68 -27.9 -18.2
10:45 1017 30.03 846 24.98 -23.1 -9.5 65 -28 -18.3
10:50 1017 30.03 846 24.98 -22.8 -9 65 -27.6 -17.7
10:55 1017 30.03 846 24.98 -22.3 -8.1 66 -27.1 -16.7
11:00 1017 30.03 846 24.98 -21.3 -6.4 65 -26.3 -15.4
11:05 1017 30.03 846 24.98 -21.1 -5.9 62 -26.6 -15.9
11:10 1017 30.03 847 25.01 -21.4 -6.5 65 -26.4 -15.5
11:15 1017 30.03 847 25.01 -20.8 -5.4 62 -26.3 -15.4
11:20 1017 30.03 847 25.01 -20.9 -5.7 63 -26.3 -15.3
11:25 1017 30.03 846 24.98 -20.9 -5.6 63 -26.1 -15
11:30 1017 30.03 846 24.98 -20.6 -5 62 -26 -14.8
11:35 1017 30.03 846 24.98 -19.9 -3.9 61 -25.7 -14.2
11:40 1017 30.03 846 24.98 -20.1 -4.2 62 -25.6 -14.1
11:45 1017 30.03 846 24.98 -20.5 -4.9 61 -26.2 -15.2
11:50 1017 30.03 846 24.98 -20.7 -5.2 63 -26.1 -15
11:55 1017 30.03 846 24.98 -20.3 -4.6 64 -25.6 -14
12:00 1017 30.03 846 24.98 -20.1 -4.1 63 -25.4 -13.6
12:05 1017 30.03 846 24.98 -19.8 -3.6 62 -25.4 -13.7
12:10 1017 30.03 846 24.98 -19.6 -3.2 60 -25.4 -13.8
12:15 1017 30.03 846 24.98 -19.7 -3.5 62 -25.2 -13.4
12:20 1017 30.03 846 24.98 -19.5 -3.1 61 -25.2 -13.4
12:25 1017 30.03 846 24.98 -18.7 -1.6 59 -24.9 -12.8
12:30 1017 30.03 846 24.98 -18.5 -1.3 57 -25 -13.1
12:35 1017 30.03 846 24.98 -18.7 -1.7 57 -25.3 -13.5
12:40 1017 30.03 846 24.98 -19.1 -2.3 58 -25.3 -13.5
12:45 1017 30.03 846 24.98 -19.4 -2.8 57 -25.9 -14.6
12:50 1017 30.03 846 24.98 -19.2 -2.5 57 -25.8 -14.4
12:55 1017 30.03 846 24.98 -19.4 -2.9 58 -25.8 -14.5
13:00 1017 30.03 846 24.98 -19.5 -3 55 -26.3 -15.3
13:05 1017 30.03 846 24.98 -20 -3.9 56 -26.7 -16
13:10 1017 30.03 846 24.98 -20.3 -4.5 56 -27 -16.6
13:15 1017 30.03 846 24.98 -20.2 -4.4 55 -27.1 -16.7
13:20 1017 30.03 846 24.98 -20.5 -4.9 58 -26.8 -16.3
13:25 1017 30.03 846 24.98 -20.5 -4.9 56 -27.1 -16.8
13:30 1017 30.03 846 24.98 -20.9 -5.7 60 -26.8 -16.2
13:35 1017 30.03 846 24.98 -21 -5.7 57 -27.4 -17.4
13:40 1017 30.03 846 24.98 -20.8 -5.4 61 -26.5 -15.8
13:45 1017 30.03 846 24.98 -20.4 -4.7 60 -26.2 -15.1
13:50 1017 30.03 846 24.98 -21.1 -5.9 62 -26.5 -15.8
13:55 1017 30.03 846 24.98 -22 -7.5 65 -27 -16.5
14:00 1017 30.03 846 24.98 -22.2 -7.9 68 -26.6 -15.9
14:05 1017 30.03 846 24.98 -21.6 -6.9 64 -26.7 -16
14:10 1017 30.03 846 24.98 -22.1 -7.7 66 -26.8 -16.2
14:15 1017 30.03 846 24.98 -22.4 -8.3 69 -26.7 -16
14:20 1017 30.03 846 24.98 -22 -7.5 69 -26.1 -15
14:25 1017 30.03 846 24.98 -21.2 -6.1 64 -26.3 -15.3
14:30 1017 30.03 846 24.98 -21.1 -6 62 -26.5 -15.8
14:35 1017 30.03 846 24.98 -19.9 -3.8 58 -26.1 -15
14:40 1017 30.03 846 24.98 -19.7 -3.5 60 -25.6 -14.2
14:45 1017 30.03 846 24.98 -19.3 -2.7 58 -25.6 -14
14:50 1017 30.03 846 24.98 -19.6 -3.2 58 -25.8 -14.4
14:55 1017 30.03 846 24.98 -20.3 -4.5 63 -25.6 -14.2
15:00 1017 30.03 846 24.98 -20.2 -4.3 63 -25.6 -14
15:05 1017 30.03 846 24.98 -20.3 -4.6 63 -25.7 -14.3
15:10 1017 30.03 846 24.98 -20.5 -4.9 62 -26.1 -14.9
15:15 1017 30.03 846 24.98 -20.9 -5.6 62 -26.3 -15.4
15:20 1017 30.03 846 24.98 -20.7 -5.3 62 -26.1 -15
15:25 1017 30.03 846 24.98 -20.5 -4.9 64 -25.6 -14.1
15:30 1017 30.03 846 24.98 -20.3 -4.6 60 -26.2 -15.2
15:35 1017 30.03 846 24.98 -20 -4 58 -26.2 -15.2
15:40 1017 30.03 846 24.98 -20.2 -4.3 62 -25.7 -14.3
15:45 1017 30.03 846 24.98 -20.4 -4.7 62 -25.8 -14.5
15:50 1017 30.03 846 24.98 -19.8 -3.6 58 -26 -14.8
15:55 1017 30.03 846 24.98 -19.9 -3.9 59 -26 -14.8
16:00 1017 30.03 846 24.98 -20 -4 58 -26.3 -15.3
16:05 1017 30.03 846 24.98 -19.9 -3.9 60 -25.9 -14.6
16:10 1017 30.03 846 24.98 -19.8 -3.6 58 -26 -14.8
16:15 1017 30.03 846 24.98 -20 -3.9 59 -26.1 -15
16:20 1017 30.03 846 24.98 -20.2 -4.4 61 -26 -14.9
16:25 1017 30.03 846 24.98 -20.3 -4.5 61 -25.9 -14.7
16:30 1017 30.03 846 24.98 -20.2 -4.3 59 -26.2 -15.2
16:35 1017 30.03 846 24.98 -20 -4 60 -25.8 -14.5
16:40 1017 30.03 846 24.98 -19.6 -3.2 58 -25.9 -14.7
16:45 1017 30.03 846 24.98 -19.4 -2.9 58 -25.7 -14.3
16:50 1017 30.03 846 24.98 -19.5 -3 58 -25.8 -14.5
16:55 1017 30.03 847 25.01 -19.4 -2.9 58 -25.7 -14.3
17:00 1017 30.03 847 25.01 -19.5 -3 60 -25.4 -13.6
17:05 1017 30.03 846 24.98 -19.6 -3.2 59 -25.7 -14.2
17:10 1017 30.03 847 25.01 -19.8 -3.7 59 -25.9 -14.6
17:15 1017 30.03 847 25.01 -19.9 -3.9 60 -25.8 -14.5
17:20 1017 30.03 847 25.01 -20 -4 60 -25.8 -14.5
17:25 1017 30.03 847 25.01 -20.2 -4.4 60 -26.1 -14.9
17:30 1017 30.03 847 25.01 -20.4 -4.8 63 -25.8 -14.5
17:35 1017 30.03 847 25.01 -20.3 -4.6 62 -25.8 -14.4
17:40 1017 30.03 847 25.01 -20.2 -4.3 63 -25.5 -13.9
17:45 1017 30.03 847 25.01 -20.3 -4.5 67 -25 -12.9
17:50 1018 30.06 847 25.01 -20.6 -5.1 68 -25.2 -13.3
17:55 1018 30.06 847 25.01 -20.9 -5.6 67 -25.5 -13.9
18:00 1018 30.06 847 25.01 -20.9 -5.5 66 -25.7 -14.3
18:05 1017 30.03 847 25.01 -20.8 -5.4 70 -24.9 -12.8
18:10 1017 30.03 847 25.01 -20.6 -5.2 68 -25 -13.1
18:15 1018 30.06 847 25.01 -20.5 -4.9 66 -25.3 -13.6
18:20 1018 30.06 847 25.01 -20.8 -5.5 67 -25.4 -13.8
18:25 1018 30.06 847 25.01 -21 -5.8 69 -25.3 -13.5
18:30 1018 30.06 847 25.01 -20.9 -5.7 68 -25.3 -13.6
18:35 1018 30.06 847 25.01 -21.2 -6.2 69 -25.4 -13.8
18:40 1018 30.06 847 25.01 -21.5 -6.6 69 -25.8 -14.4
18:45 1018 30.06 847 25.01 -21.9 -7.5 68 -26.3 -15.4
18:50 1018 30.06 847 25.01 -21.8 -7.2 69 -26 -14.8
18:55 1018 30.06 847 25.01 -21.5 -6.8 69 -25.8 -14.4
19:00 1018 30.06 847 25.01 -21.2 -6.1 67 -25.7 -14.3
19:05 1018 30.06 847 25.01 -21.1 -5.9 67 -25.6 -14.2
19:10 1018 30.06 847 25.01 -21.5 -6.7 68 -25.8 -14.5
19:15 1018 30.06 847 25.01 -21.6 -7 70 -25.8 -14.4
19:20 1018 30.06 847 25.01 -22 -7.5 69 -26.2 -15.1
19:25 1018 30.06 847 25.01 -22.4 -8.3 71 -26.4 -15.4
19:30 1018 30.06 847 25.01 -22.6 -8.7 71 -26.5 -15.6
19:35 1018 30.06 847 25.01 -22.6 -8.7 71 -26.6 -15.9
19:40 1018 30.06 847 25.01 -22.8 -9 71 -26.6 -15.9
19:45 1018 30.06 847 25.01 -23 -9.3 72 -26.7 -16.1
19:50 1018 30.06 847 25.01 -22.3 -8.1 68 -26.7 -16
19:55 1018 30.06 847 25.01 -21.8 -7.2 70 -25.8 -14.5
20:00 1018 30.06 847 25.01 -21 -5.8 67 -25.7 -14.2
20:05 1018 30.06 847 25.01 -20.6 -5.1 64 -25.7 -14.3
20:10 1018 30.06 847 25.01 -21.2 -6.1 64 -26.3 -15.4
20:15 1018 30.06 847 25.01 -21.5 -6.6 76 -24.6 -12.3
20:20 1018 30.06 847 25.01 -20.8 -5.4 64 -25.9 -14.6
20:25 1018 30.06 847 25.01 -20.1 -4.2 65 -25.1 -13.1
20:30 1018 30.06 847 25.01 -19.7 -3.5 66 -24.6 -12.3
20:35 1018 30.06 847 25.01 -20 -4.1 69 -24.3 -11.7
20:40 1018 30.06 847 25.01 -20.3 -4.5 71 -24.2 -11.6
20:45 1018 30.06 847 25.01 -20.1 -4.1 74 -23.6 -10.4
20:50 1018 30.06 847 25.01 -19.9 -3.9 70 -24 -11.2
20:55 1018 30.06 848 25.04 -19.5 -3.1 67 -24.2 -11.6
21:00 1018 30.06 848 25.04 -19.5 -3.1 68 -23.9 -11
21:05 1018 30.06 847 25.01 -19.6 -3.2 69 -23.9 -11
21:10 1018 30.06 847 25.01 -19 -2.2 64 -24.2 -11.5
21:15 1018 30.06 847 25.01 -18.7 -1.7 65 -23.7 -10.7
21:20 1018 30.06 847 25.01 -19.1 -2.4 66 -24.1 -11.3
21:25 1018 30.06 848 25.04 -19 -2.1 66 -23.8 -10.9
21:30 1018 30.06 848 25.04 -19.1 -2.4 66 -23.9 -11
21:35 1019 30.09 848 25.04 -18.8 -1.9 68 -23.4 -10.1
21:40 1018 30.06 848 25.04 -19.2 -2.6 68 -23.7 -10.7
21:45 1018 30.06 848 25.04 -19.7 -3.4 70 -23.9 -11
21:50 1019 30.09 848 25.04 -19.7 -3.4 70 -23.9 -11
21:55 1019 30.09 848 25.04 -20 -4 72 -23.9 -11
22:00 1018 30.06 848 25.04 -20.4 -4.8 73 -24.1 -11.4
22:05 1018 30.06 848 25.04 -20.2 -4.3 71 -24.2 -11.6
22:10 1018 30.06 848 25.04 -20 -3.9 70 -24.2 -11.5
22:15 1018 30.06 848 25.04 -20 -4 70 -24.1 -11.5
22:20 1018 30.06 848 25.04 -20.2 -4.3 71 -24.1 -11.3
22:25 1018 30.06 848 25.04 -20.2 -4.4 73 -23.8 -10.9
22:30 1018 30.06 848 25.04 -19.8 -3.6 72 -23.6 -10.4
22:35 1018 30.06 848 25.04 -19.6 -3.2 69 -23.8 -10.9
22:40 1018 30.06 848 25.04 -19.9 -3.7 72 -23.7 -10.6
22:45 1018 30.06 847 25.01 -19.9 -3.9 72 -23.8 -10.9
22:50 1018 30.06 847 25.01 -20.1 -4.1 71 -24 -11.2
22:55 1018 30.06 847 25.01 -20.2 -4.4 74 -23.8 -10.9
23:00 1018 30.06 848 25.04 -19.9 -3.8 73 -23.6 -10.5
23:05 1018 30.06 848 25.04 -19.7 -3.5 70 -23.9 -11.1
23:10 1019 30.09 848 25.04 -19.9 -3.8 69 -24.2 -11.6
23:15 1019 30.09 848 25.04 -20 -4 69 -24.3 -11.8
23:20 1018 30.06 848 25.04 -20 -4 69 -24.4 -11.9
23:25 1019 30.09 848 25.04 -20.1 -4.1 68 -24.6 -12.3
23:30 1019 30.09 848 25.04 -20.1 -4.1 69 -24.4 -12
23:35 1019 30.09 848 25.04 -20 -4 69 -24.3 -11.8
23:40 1019 30.09 848 25.04 -19.8 -3.6 70 -23.9 -11
23:45 1019 30.09 848 25.04 -19.7 -3.4 71 -23.6 -10.5
23:50 1019 30.09 848 25.04 -19.6 -3.4 72 -23.5 -10.4
23:55 1019 30.09 848 25.04 -19.6 -3.3 72 -23.4 -10.2
24:00 1019 30.09 848 25.04 -19.2 -2.6 70 -23.4 -10.1